Lunamar — 5BNV2 — position and weather

sailwx.info

Track history (hours):
 
Tides and Currents Weather Stations Pressure Air Temp Water Temp Dewpoint Dewpoint Depression Visibility Wind Speed Wind Dir Waves Ship Positions

Lunamar

Last reported at 2016-May-02 23:33 UTC. Time now 2016-May-03 06:51 UTC.
Position N 51°25' E 002°12'.

Length 90 m; draft 3.4 m.

Type: Cargo ship. MMSI: 212762000.

Date/timePositionNaut miles runAvg speedWind from/ knotsBaromVisibWave heightAir tempDewpointWater temp
2016-May-02 23:33N 51°25' E 002°12'1211.8
2016-May-02 22:34N 51°14' E 002°04'1312.5
2016-May-02 21:33N 51°07' E 001°48'1613.4
2016-May-02 20:20N 50°55' E 001°30'6911.6
2016-May-02 14:23N 50°16' E 000°01'8 9.8
2016-May-02 13:32N 50°09' W 000°08'8 8.4
2016-May-02 12:33N 50°03' W 000°16'8 8.2
2016-May-02 11:33N 49°57' W 000°24'8 8.0
2016-May-02 10:33N 49°51' W 000°32'8 8.1
2016-May-02 09:34N 49°45' W 000°40'8 8.3
2016-May-02 08:33N 49°38' W 000°49'6 0.9
2016-May-02 01:27N 49°33' W 000°54'0 0.0
2016-May-01 20:30N 49°33' W 000°54'0 0.0
2016-May-01 18:18N 49°33' W 000°54'0 0.0
2016-May-01 17:30N 49°33' W 000°54'2 0.7
2016-May-01 15:23N 49°34' W 000°55'1910.4
2016-May-01 13:33N 49°46' W 001°18'153 8.1
2016-Apr-30 18:33N 48°47' W 004°56'8 8.3
2016-Apr-30 17:33N 48°42' W 005°06'8 7.9
2016-Apr-30 16:33N 48°37' W 005°15'9 7.4
2016-Apr-30 15:21N 48°30' W 005°23'  
2016-Apr-26 17:04N 48°38' W 005°13'116 9.2
2016-Apr-26 04:33N 49°55' W 003°00'106 8.9
2016-Apr-25 16:33N 50°28' W 000°22'1010.4
2016-Apr-25 15:33N 50°31' W 000°07'10 9.8
2016-Apr-25 14:33N 50°33' E 000°08'9 9.3
2016-Apr-25 13:33N 50°36' E 000°22'9 8.2
2016-Apr-25 12:29N 50°39' E 000°35'30 8.9
2016-Apr-25 09:06N 50°57' E 001°13'611.9
2016-Apr-25 08:33N 51°01' E 001°21'1211.9
2016-Apr-25 07:33N 51°09' E 001°36'1110.5
2016-Apr-25 06:33N 51°16' E 001°48'9 9.3
2016-Apr-25 05:33N 51°24' E 001°55'8 8.3
2016-Apr-25 04:33N 51°32' E 002°02'8 8.0
2016-Apr-25 03:33N 51°38' E 002°10'156 8.9
2016-Apr-24 10:06N 53°35' E 004°59'4 6.7
2016-Apr-24 09:32N 53°35' E 005°06'7 7.0
2016-Apr-24 08:33N 53°38' E 005°16'7 6.8
2016-Apr-24 07:33N 53°41' E 005°26'6 6.2
2016-Apr-24 06:33N 53°41' E 005°36'8 7.2
2016-Apr-24 05:28N 53°43' E 005°49'13 9.1
2016-Apr-24 04:05N 53°47' E 006°09'5 9.7
2016-Apr-24 03:33N 53°49' E 006°17'10 9.7
2016-Apr-24 02:33N 53°51' E 006°33'10 9.5
2016-Apr-24 01:33N 53°53' E 006°49'9 9.1
2016-Apr-24 00:33N 53°56' E 007°04'8 8.5
2016-Apr-23 23:33N 53°58' E 007°18'8 7.9
2016-Apr-23 22:33N 53°59' E 007°31'7 7.4
2016-Apr-23 21:33N 54°01' E 007°43'8 7.8
2016-Apr-23 20:33N 54°01' E 007°56'9 8.6
2016-Apr-23 19:33N 54°00' E 008°11'11 9.7
2016-Apr-23 18:23N 53°59' E 008°30'1012.1
2016-Apr-23 17:33N 53°52' E 008°44'1111.3
2016-Apr-23 16:33N 53°52' E 009°03'4 4.2
2016-Apr-23 15:33N 53°54' E 009°09'2 2.4
2016-Apr-23 14:33N 53°56' E 009°12'8 7.5
2016-Apr-23 13:33N 54°02' E 009°18'16 7.5
2016-Apr-23 11:28N 54°14' E 009°36'8 7.4
2016-Apr-23 10:22N 54°20' E 009°44'6 7.5
2016-Apr-23 09:33N 54°21' E 009°55'5 5.2
2016-Apr-23 08:33N 54°22' E 010°04'3 2.9
2016-Apr-23 07:33N 54°22' E 010°09'4 4.1
2016-Apr-23 06:33N 54°25' E 010°13'19 9.4
2016-Apr-23 04:33N 54°35' E 010°41'9 9.5
2016-Apr-23 03:33N 54°36' E 010°57'9 8.8
2016-Apr-23 02:33N 54°36' E 011°12'9 9.1
2016-Apr-23 01:33N 54°32' E 011°26'9 9.3
2016-Apr-23 00:33N 54°28' E 011°41'9 9.1
2016-Apr-22 23:33N 54°26' E 011°56'  
Track history (hours):
 
Tides and Currents Weather Stations Pressure Air Temp Water Temp Dewpoint Dewpoint Depression Visibility Wind Speed Wind Dir Waves Ship Positions

Lunamar

Last reported at 2016-May-02 23:33 UTC. Time now 2016-May-03 06:51 UTC.
Position N 51°25' E 002°12'.

Length 90 m; draft 3.4 m.

Type: Cargo ship. MMSI: 212762000.

Date/timePositionNaut miles runAvg speedWind from/ knotsBaromVisibWave heightAir tempDewpointWater temp
2016-May-02 23:33N 51°25' E 002°12'1211.8
2016-May-02 22:34N 51°14' E 002°04'1312.5
2016-May-02 21:33N 51°07' E 001°48'1613.4
2016-May-02 20:20N 50°55' E 001°30'6911.6
2016-May-02 14:23N 50°16' E 000°01'8 9.8
2016-May-02 13:32N 50°09' W 000°08'8 8.4
2016-May-02 12:33N 50°03' W 000°16'8 8.2
2016-May-02 11:33N 49°57' W 000°24'8 8.0
2016-May-02 10:33N 49°51' W 000°32'8 8.1
2016-May-02 09:34N 49°45' W 000°40'8 8.3
2016-May-02 08:33N 49°38' W 000°49'6 0.9
2016-May-02 01:27N 49°33' W 000°54'0 0.0
2016-May-01 20:30N 49°33' W 000°54'0 0.0
2016-May-01 18:18N 49°33' W 000°54'0 0.0
2016-May-01 17:30N 49°33' W 000°54'2 0.7
2016-May-01 15:23N 49°34' W 000°55'1910.4
2016-May-01 13:33N 49°46' W 001°18'153 8.1
2016-Apr-30 18:33N 48°47' W 004°56'8 8.3
2016-Apr-30 17:33N 48°42' W 005°06'8 7.9
2016-Apr-30 16:33N 48°37' W 005°15'9 7.4
2016-Apr-30 15:21N 48°30' W 005°23'  
2016-Apr-26 17:04N 48°38' W 005°13'116 9.2
2016-Apr-26 04:33N 49°55' W 003°00'106 8.9
2016-Apr-25 16:33N 50°28' W 000°22'1010.4
2016-Apr-25 15:33N 50°31' W 000°07'10 9.8
2016-Apr-25 14:33N 50°33' E 000°08'9 9.3
2016-Apr-25 13:33N 50°36' E 000°22'9 8.2
2016-Apr-25 12:29N 50°39' E 000°35'30 8.9
2016-Apr-25 09:06N 50°57' E 001°13'611.9
2016-Apr-25 08:33N 51°01' E 001°21'1211.9
2016-Apr-25 07:33N 51°09' E 001°36'1110.5
2016-Apr-25 06:33N 51°16' E 001°48'9 9.3
2016-Apr-25 05:33N 51°24' E 001°55'8 8.3
2016-Apr-25 04:33N 51°32' E 002°02'8 8.0
2016-Apr-25 03:33N 51°38' E 002°10'156 8.9
2016-Apr-24 10:06N 53°35' E 004°59'4 6.7
2016-Apr-24 09:32N 53°35' E 005°06'7 7.0
2016-Apr-24 08:33N 53°38' E 005°16'7 6.8
2016-Apr-24 07:33N 53°41' E 005°26'6 6.2
2016-Apr-24 06:33N 53°41' E 005°36'8 7.2
2016-Apr-24 05:28N 53°43' E 005°49'13 9.1
2016-Apr-24 04:05N 53°47' E 006°09'5 9.7
2016-Apr-24 03:33N 53°49' E 006°17'10 9.7
2016-Apr-24 02:33N 53°51' E 006°33'10 9.5
2016-Apr-24 01:33N 53°53' E 006°49'9 9.1
2016-Apr-24 00:33N 53°56' E 007°04'8 8.5
2016-Apr-23 23:33N 53°58' E 007°18'8 7.9
2016-Apr-23 22:33N 53°59' E 007°31'7 7.4
2016-Apr-23 21:33N 54°01' E 007°43'8 7.8
2016-Apr-23 20:33N 54°01' E 007°56'9 8.6
2016-Apr-23 19:33N 54°00' E 008°11'11 9.7
2016-Apr-23 18:23N 53°59' E 008°30'1012.1
2016-Apr-23 17:33N 53°52' E 008°44'1111.3
2016-Apr-23 16:33N 53°52' E 009°03'4 4.2
2016-Apr-23 15:33N 53°54' E 009°09'2 2.4
2016-Apr-23 14:33N 53°56' E 009°12'8 7.5
2016-Apr-23 13:33N 54°02' E 009°18'16 7.5
2016-Apr-23 11:28N 54°14' E 009°36'8 7.4
2016-Apr-23 10:22N 54°20' E 009°44'6 7.5
2016-Apr-23 09:33N 54°21' E 009°55'5 5.2
2016-Apr-23 08:33N 54°22' E 010°04'3 2.9
2016-Apr-23 07:33N 54°22' E 010°09'4 4.1
2016-Apr-23 06:33N 54°25' E 010°13'19 9.4
2016-Apr-23 04:33N 54°35' E 010°41'9 9.5
2016-Apr-23 03:33N 54°36' E 010°57'9 8.8
2016-Apr-23 02:33N 54°36' E 011°12'9 9.1
2016-Apr-23 01:33N 54°32' E 011°26'9 9.3
2016-Apr-23 00:33N 54°28' E 011°41'9 9.1
2016-Apr-22 23:33N 54°26' E 011°56'  

Dump ship's entire track history